Ride Results

Mudgee (12-05-2018)
Ride distance: 80.0 km

Outcomes - Mudgee (12-05-2018)
Division No. of Entries Retired / DNE Completed Withdrawn Ineligible V/O Percentage Completed
HW 15 - 12 2 - 1 80.00%
MW 34 - 28 1 1 4 82.35%
LW 17 - 14 3 - - 82.35%
JN 11 - 10 1 - - 90.91%
Totals 77 - 64 7 1 5 83.12%
Results - Mudgee (12-05-2018)
No. Rider Horse Place Time Leg Speeds Total
Km/Hr
H/R bpm
Heavyweight
17 John Robertson Karabil Asis 1 (BC) 4:19:00 19.3, 17.7 18.53 32, 38, 40 (Avg:39)
31 Shaun Jones Zarafa 2 4:48:00 17.9, 15.5 16.67 40, 44, 48 (Avg:46)
88 Ian Dreghorn Ausden Nile Prins 3 6:18:00 13.7, 11.7 12.70 30, 34, 46 (Avg:40)
28 Sue Warren Warren Park Mishaala 4 6:21:00 13.3, 11.9 12.60 31, 40, 40 (Avg:40)
25 Tony Warren Razorback Darcy 4 6:21:00 13.3, 11.9 12.60 35, 38, 40 (Avg:39)
50 Rod Mitchell Aloha Tribal Warrior 6 6:28:00 13.3, 11.5 12.37 34, 40, 46 (Avg:43)
32 Gary Thomas Aloha Desert Hero 7 7:04:00 11.1, 11.5 11.32 32, 40, 42 (Avg:41)
49 Steve Finnane Bobby 8 7:07:00 13.1, 9.8 11.24 32, 45, 53 (Avg:49)
38 Steve Brooks A'landell Pirate 9 7:26:00 11.9, 9.7 10.76 36, 40, 44 (Avg:42)
54 Keith Sumpner Fonda 10 7:53:00 12.6, 8.4 10.15 40, 43, 42 (Avg:42)
52 Vernon Brown Prince 11 7:58:00 12.6, 8.3 10.04 37, 47, 49 (Avg:48)
24 Brian Stott Sierra Lodge The Sorcerer 12 8:12:00 10.8, 8.8 9.76 35, 44, 52 (Avg:48)
87 Damien Bonham Box Hill Bullzeye Withdrawn L2 0:00:00 - - 30, 36, 48 (Avg:42)
26 Charles Gauci Charleville Commanche Red Lame L1 0:00:00 13.3 - 33, 60 (Avg:60)
60 Alan Lindsay Casamir Stormboy Withdrawn L1 0:00:00 - - 42, 40 (Avg:40)
Middleweight
71 Ellie Maddick Prince Emani Spa 1 (BC) 4:19:00 18.8, 18.1 18.53 32, 47, 44 (Avg:45)
30 Emily Streckfuss Webbs Creek Starlight 2 4:40:00 17.9, 16.4 17.14 36, 47, 42 (Avg:44)
69 Courtney Anderson Cedar Ridge Carbine 3 4:44:00 17.0, 16.7 16.90 28, 36, 39 (Avg:37)
67 Sharyn Coulston Twynham El Zephyr 3 4:44:00 17.0, 16.7 16.90 30, 46, 46 (Avg:46)
74 Fiona Meller Maxwell Eve 5 4:48:00 19.3, 14.6 16.67 36, 45, 44 (Avg:44)
81 Tayla Hadzi Cap Braveheart 6 5:00:00 16.4, 15.5 16.00 36, 44, 42 (Avg:43)
79 Sorsha Stuart-Rokvic Oso Elycian 6 5:00:00 16.4, 15.5 16.00 36, 36, 40 (Avg:38)
55 Monique Echentille Follydown Kadin 8 5:23:00 16.4, 13.5 14.86 36, 44, 48 (Avg:46)
56 Dean Walkom Tall Timbers Roberto 8 5:23:00 16.4, 13.5 14.86 40, 44, 52 (Avg:48)
77 Grace Huxtable Cabrillas Heir 10 5:24:00 15.1, 14.4 14.81 28, 40, 47 (Avg:43)
14 Ruth Van der Wegen Attallah Soulita 10 5:24:00 15.9, 13.7 14.81 36, 38, 40 (Avg:39)
78 Caitlin Langley Oso Emelyne 12 5:33:00 14.5, 14.2 14.41 36, 46, 44 (Avg:45)
73 Jenny Berg Shahira I.C.U. 13 6:00:00 13.3, 13.3 13.33 26, 34, 36 (Avg:35)
72 Kylie Jonkers Girilambone Comet 14 6:03:00 15.0, 11.7 13.22 32, 36, 40 (Avg:38)
39 Thomas Hermann Wasabi 15 6:04:00 15.9, 11.2 13.19 32, 44, 44 (Avg:44)
37 Chrisovl Morley Rocky Creek Sioux Dee Dee 15 6:04:00 14.2, 12.3 13.19 36, 42, 44 (Avg:43)
45 Sean Griffin Taku 17 6:07:00 13.3, 12.8 13.08 32, 36, 38 (Avg:37)
53 Jo Davis Jamal Desert Mist 18 6:21:00 13.3, 11.9 12.60 32, 34, 46 (Avg:40)
15 Garry Bennett Karabil Kaaru 19 6:28:00 13.3, 11.5 12.37 34, 37, 50 (Avg:43)
66 Darryl King Cedar Ridge Dee Why 20 6:46:00 13.3, 10.6 11.82 28, 35, 40 (Avg:37)
21 Kylie Whatman Windradyne Jose 21 7:03:00 11.4, 11.2 11.35 37, 40, 40 (Avg:40)
33 Ashley Thomas Glenelen Park Phoenix 22 7:04:00 11.1, 11.5 11.32 33, 42, 44 (Avg:43)
48 Rochelle Knihinicki Velona Amadi 23 7:10:00 11.4, 10.8 11.16 39, 47, 50 (Avg:48)
51 Nicolle Brown Kie-Al Nasarian 24 7:53:00 12.6, 8.4 10.15 40, 40, 47 (Avg:43)
19 John Symons Bell Barry Blue Diamond 25 7:57:00 12.6, 8.3 10.06 44, 42, 48 (Avg:45)
64 Kristin Reese Arabec Wolveriine 26 7:58:00 10.2, 9.8 10.04 34, 40, 40 (Avg:40)
13 Susan Pritchard Velona El Dargo 27 8:35:00 10.2, 8.5 9.32 28, 44, 42 (Avg:43)
12 Kat Stenholm Ibn Velona Phoenix 27 8:35:00 10.2, 8.5 9.32 36, 50, 44 (Avg:47)
22 Peter Bice Anijoa Anna Lame L2 0:00:00 14.6, 11.9 - 40, 39, 36 (Avg:37)
35 Georgia Curry Mountain Breeze Just Annallusion Lame L2 0:00:00 2.0, 17.6 - 42, 50, 48 (Avg:49)
36 Rodney Curry Mountain Breeze Mingha Lame L2 0:00:00 13.7, 11.7 - 36, 38, 46 (Avg:42)
47 Allison Knihinicki Newbury Zhahh Lame L2 0:00:00 11.4, 10.8 - 36, 40, 52 (Avg:46)
75 Emily Pinnuck Oso Ngaire Under Novice Time L2 0:00:00 16.4, 15.5 - 32, 47, 42 (Avg:44)
65 Cecilia Stone Bara Park Miricle Man Withdrawn L1 0:00:00 - - 32, 45 (Avg:45)
Lightweight
84 Elizabeth Moir Kenya s Gold 1 (BC) 5:08:00 16.6, 14.6 15.58 29, 36, 42 (Avg:39)
76 Victoria Bice Oso Bettina 2 5:33:00 16.2, 12.9 14.41 36, 40, 42 (Avg:41)
68 Lily Peters Bullio Charlotte 3 6:00:00 13.3, 13.3 13.33 30, 36, 34 (Avg:35)
10 Isabella Circosta Ropa Park Bella Shakila 4 6:03:00 14.6, 12.0 13.22 37, 40, 44 (Avg:42)
46 Dianne Luker Sallydale Wings on Fire 5 6:16:00 14.4, 11.4 12.77 30, 44, 43 (Avg:43)
11 Sue Todd Shakari Bear 5 6:16:00 14.4, 11.4 12.77 34, 42, 49 (Avg:45)
43 Georgia Smith Wallaby Jones te 7 6:41:00 11.6, 12.3 11.97 34, 38, 43 (Avg:40)
83 Indigo Noonan Littlebanks Rustic Wings 8 6:46:00 12.0, 11.5 11.82 40, 39, 41 (Avg:40)
20 Penelope Whatman O.P. Brazen 9 7:03:00 11.4, 11.2 11.35 34, 36, 44 (Avg:40)
58 Zoe Locke Graciella 10 7:20:00 13.7, 9.0 10.91 36, 35, 39 (Avg:37)
41 Julie Brooks Harmere Jameel 11 7:26:00 11.9, 9.7 10.76 38, 51, 53 (Avg:52)
63 Clare Fleming Kalkadoon Kid 12 7:58:00 10.2, 9.8 10.04 40, 40, 40 (Avg:40)
27 Linda Logan Willow Valley Dartanyan 13 8:12:00 11.2, 8.6 9.76 36, 37, 38 (Avg:37)
62 Heather Parry Flemingo Bomsaway 13 8:12:00 10.2, 9.3 9.76 36, 50, 56 (Avg:53)
44 Shelley Chapman Sh'Harriet te Withdrawn L1 0:00:00 - - 36, 42 (Avg:42)
18 Shirley Clark Oso Zoltan Withdrawn L1 0:00:00 - - 44, 40 (Avg:40)
42 Monique Milton Private Collection te Withdrawn L1 0:00:00 - - 48, 40 (Avg:40)
Junior
29 Levi Robinson Karumba Beamish 1 (BC) 4:55:00 17.0, 15.5 16.27 28, 44, 40 (Avg:42)
80 Tahnaya Mercieca Brag Ngood 2 5:24:00 15.1, 14.4 14.81 39, 44, 48 (Avg:46)
57 Makayla Circosta Tamlyn PL Amira Shari 3 6:03:00 14.6, 12.0 13.22 32, 48, 40 (Avg:44)
23 Alexander Bice Georgie Girl 4 6:04:00 14.6, 11.9 13.19 38, 42, 45 (Avg:43)
82 Kaitlyn Mercieca JRK Spyder 5 6:12:00 13.4, 12.4 12.90 32, 44, 40 (Avg:42)
16 Sophie Ramsay Autumnight Goldmine 5 6:12:00 13.3, 12.4 12.90 32, 42, 38 (Avg:40)
59 Takira Baldock Saladah 7 6:46:00 13.1, 10.7 11.82 28, 39, 46 (Avg:42)
86 Charlie Bonham Box Hill Hussy 8 7:26:00 11.3, 10.2 10.76 31, 44, 41 (Avg:42)
85 Sam Duff Box Hill Pegasus 8 7:26:00 11.3, 10.2 10.76 32, 28, 38 (Avg:33)
61 Miranda Hodges Flemingo Papilion 10 7:58:00 10.2, 9.8 10.04 40, 42, 45 (Avg:43)
70 Emma Cole Windradyne Flame Withdrawn L1 0:00:00 - - 32, 40 (Avg:40)